Terminal Aerodrome Forecast
Issued by NWS Twin Cities, MN

Home | Current Version | Previous Version | Text Only | Print | Product List | Glossary On
Versions: 1 2 3 4 5 6 7 8 9 10 11 12 13 14 15
462
FTUS43 KMPX 241515 AAA
TAFEAU
TAF AMD
KEAU 241515Z 2415/2512 13010KT P6SM OVC008
     FM242000 13011KT P6SM OVC013
     FM250700 14008KT 5SM TSRA BR OVC008CB=

USA.gov is the U.S. government's official web portal to all federal, state and local government web resources and services.